sensor_id;sensor_type;location;lat;lon;timestamp;P1;durP1;ratioP1;P2;durP2;ratioP2
2119;SDS011;1066;52.540;13.420;2022-10-23T00:02:23;9.00;;;5.17;;
2119;SDS011;1066;52.540;13.420;2022-10-23T00:04:49;10.57;;;5.20;;
2119;SDS011;1066;52.540;13.420;2022-10-23T00:07:15;7.30;;;5.67;;
2119;SDS011;1066;52.540;13.420;2022-10-23T00:09:41;11.23;;;8.20;;
2119;SDS011;1066;52.540;13.420;2022-10-23T00:12:06;8.40;;;6.53;;
2119;SDS011;1066;52.540;13.420;2022-10-23T00:14:32;5.97;;;5.43;;
2119;SDS011;1066;52.540;13.420;2022-10-23T00:16:57;6.83;;;4.70;;
2119;SDS011;1066;52.540;13.420;2022-10-23T00:19:23;7.00;;;5.70;;
2119;SDS011;1066;52.540;13.420;2022-10-23T00:21:48;5.40;;;4.37;;
2119;SDS011;1066;52.540;13.420;2022-10-23T00:24:13;6.30;;;5.70;;
2119;SDS011;1066;52.540;13.420;2022-10-23T00:26:39;6.60;;;5.33;;
2119;SDS011;1066;52.540;13.420;2022-10-23T00:29:05;7.07;;;5.60;;
2119;SDS011;1066;52.540;13.420;2022-10-23T00:31:31;6.23;;;5.53;;
2119;SDS011;1066;52.540;13.420;2022-10-23T00:33:56;12.63;;;5.77;;
2119;SDS011;1066;52.540;13.420;2022-10-23T00:36:22;7.07;;;5.83;;
2119;SDS011;1066;52.540;13.420;2022-10-23T00:38:48;9.90;;;5.60;;
2119;SDS011;1066;52.540;13.420;2022-10-23T00:41:16;8.50;;;5.60;;
2119;SDS011;1066;52.540;13.420;2022-10-23T00:43:59;6.93;;;5.93;;
2119;SDS011;1066;52.540;13.420;2022-10-23T00:46:24;6.70;;;5.40;;
2119;SDS011;1066;52.540;13.420;2022-10-23T00:48:50;9.20;;;5.60;;
2119;SDS011;1066;52.540;13.420;2022-10-23T00:51:15;7.33;;;5.93;;
2119;SDS011;1066;52.540;13.420;2022-10-23T00:53:41;9.13;;;6.20;;
2119;SDS011;1066;52.540;13.420;2022-10-23T00:56:07;7.50;;;5.60;;
2119;SDS011;1066;52.540;13.420;2022-10-23T00:58:33;8.87;;;5.77;;
2119;SDS011;1066;52.540;13.420;2022-10-23T01:00:58;6.80;;;5.33;;
2119;SDS011;1066;52.540;13.420;2022-10-23T01:03:24;5.80;;;5.20;;
2119;SDS011;1066;52.540;13.420;2022-10-23T01:08:30;6.93;;;6.27;;
2119;SDS011;1066;52.540;13.420;2022-10-23T01:11:04;6.33;;;5.47;;
2119;SDS011;1066;52.540;13.420;2022-10-23T01:13:34;10.10;;;5.70;;
2119;SDS011;1066;52.540;13.420;2022-10-23T01:16:06;8.97;;;6.33;;
2119;SDS011;1066;52.540;13.420;2022-10-23T01:19:08;8.60;;;5.93;;
2119;SDS011;1066;52.540;13.420;2022-10-23T01:21:53;7.27;;;5.50;;
2119;SDS011;1066;52.540;13.420;2022-10-23T01:24:45;5.63;;;5.13;;
2119;SDS011;1066;52.540;13.420;2022-10-23T01:30:06;6.60;;;5.17;;
2119;SDS011;1066;52.540;13.420;2022-10-23T01:35:26;7.00;;;5.73;;
2119;SDS011;1066;52.540;13.420;2022-10-23T01:40:46;6.03;;;5.43;;
2119;SDS011;1066;52.540;13.420;2022-10-23T01:43:15;5.90;;;5.20;;
2119;SDS011;1066;52.540;13.420;2022-10-23T01:45:52;6.53;;;5.10;;
2119;SDS011;1066;52.540;13.420;2022-10-23T01:48:23;8.07;;;5.40;;
2119;SDS011;1066;52.540;13.420;2022-10-23T01:50:52;5.77;;;5.20;;
2119;SDS011;1066;52.540;13.420;2022-10-23T01:53:18;5.93;;;5.33;;
2119;SDS011;1066;52.540;13.420;2022-10-23T01:55:45;8.07;;;5.50;;
2119;SDS011;1066;52.540;13.420;2022-10-23T01:58:11;8.77;;;5.33;;
2119;SDS011;1066;52.540;13.420;2022-10-23T02:00:38;7.00;;;5.67;;
2119;SDS011;1066;52.540;13.420;2022-10-23T02:03:05;7.03;;;6.33;;
2119;SDS011;1066;52.540;13.420;2022-10-23T02:05:31;6.20;;;5.30;;
2119;SDS011;1066;52.540;13.420;2022-10-23T02:07:57;9.70;;;6.27;;
2119;SDS011;1066;52.540;13.420;2022-10-23T02:10:29;6.50;;;5.37;;
2119;SDS011;1066;52.540;13.420;2022-10-23T02:13:47;8.53;;;5.13;;
2119;SDS011;1066;52.540;13.420;2022-10-23T02:15:59;6.33;;;5.03;;
2119;SDS011;1066;52.540;13.420;2022-10-23T02:21:14;9.33;;;5.63;;
2119;SDS011;1066;52.540;13.420;2022-10-23T02:23:53;8.67;;;6.23;;
2119;SDS011;1066;52.540;13.420;2022-10-23T02:26:26;6.07;;;4.83;;
2119;SDS011;1066;52.540;13.420;2022-10-23T02:28:56;6.63;;;5.13;;
2119;SDS011;1066;52.540;13.420;2022-10-23T02:31:24;7.43;;;6.30;;
2119;SDS011;1066;52.540;13.420;2022-10-23T02:33:49;5.70;;;5.07;;
2119;SDS011;1066;52.540;13.420;2022-10-23T02:36:15;6.93;;;6.10;;
2119;SDS011;1066;52.540;13.420;2022-10-23T02:38:43;6.07;;;5.47;;
2119;SDS011;1066;52.540;13.420;2022-10-23T02:41:14;8.80;;;5.73;;
2119;SDS011;1066;52.540;13.420;2022-10-23T02:43:54;5.53;;;4.67;;
2119;SDS011;1066;52.540;13.420;2022-10-23T02:57:33;8.23;;;5.63;;
2119;SDS011;1066;52.540;13.420;2022-10-23T03:00:05;11.97;;;6.57;;
2119;SDS011;1066;52.540;13.420;2022-10-23T03:05:11;7.13;;;4.90;;
2119;SDS011;1066;52.540;13.420;2022-10-23T03:07:39;5.80;;;5.30;;
2119;SDS011;1066;52.540;13.420;2022-10-23T03:10:05;8.20;;;5.40;;
2119;SDS011;1066;52.540;13.420;2022-10-23T03:12:31;9.23;;;5.13;;
2119;SDS011;1066;52.540;13.420;2022-10-23T03:14:57;8.40;;;5.47;;
2119;SDS011;1066;52.540;13.420;2022-10-23T03:17:23;7.70;;;5.43;;
2119;SDS011;1066;52.540;13.420;2022-10-23T03:19:49;5.80;;;5.20;;
2119;SDS011;1066;52.540;13.420;2022-10-23T03:22:15;6.53;;;5.83;;
2119;SDS011;1066;52.540;13.420;2022-10-23T03:24:40;11.00;;;5.93;;
2119;SDS011;1066;52.540;13.420;2022-10-23T03:27:05;7.00;;;5.80;;
2119;SDS011;1066;52.540;13.420;2022-10-23T03:29:31;7.33;;;4.83;;
2119;SDS011;1066;52.540;13.420;2022-10-23T03:31:57;6.83;;;6.20;;
2119;SDS011;1066;52.540;13.420;2022-10-23T03:34:22;6.70;;;6.10;;
2119;SDS011;1066;52.540;13.420;2022-10-23T03:36:47;8.07;;;5.43;;
2119;SDS011;1066;52.540;13.420;2022-10-23T03:39:13;7.03;;;6.03;;
2119;SDS011;1066;52.540;13.420;2022-10-23T03:41:38;5.10;;;4.40;;
2119;SDS011;1066;52.540;13.420;2022-10-23T03:44:03;5.40;;;4.90;;
2119;SDS011;1066;52.540;13.420;2022-10-23T03:46:29;6.00;;;4.80;;
2119;SDS011;1066;52.540;13.420;2022-10-23T03:48:54;5.40;;;4.90;;
2119;SDS011;1066;52.540;13.420;2022-10-23T03:51:22;6.17;;;5.40;;
2119;SDS011;1066;52.540;13.420;2022-10-23T03:53:48;8.23;;;5.40;;
2119;SDS011;1066;52.540;13.420;2022-10-23T03:56:14;7.07;;;6.10;;
2119;SDS011;1066;52.540;13.420;2022-10-23T03:58:39;8.33;;;5.33;;
2119;SDS011;1066;52.540;13.420;2022-10-23T04:01:04;8.83;;;6.00;;
2119;SDS011;1066;52.540;13.420;2022-10-23T04:03:30;9.13;;;6.57;;
2119;SDS011;1066;52.540;13.420;2022-10-23T04:05:55;6.10;;;5.53;;
2119;SDS011;1066;52.540;13.420;2022-10-23T04:08:20;5.73;;;5.20;;
2119;SDS011;1066;52.540;13.420;2022-10-23T04:10:46;6.53;;;5.10;;
2119;SDS011;1066;52.540;13.420;2022-10-23T04:13:11;10.53;;;6.57;;
2119;SDS011;1066;52.540;13.420;2022-10-23T04:15:36;10.27;;;5.50;;
2119;SDS011;1066;52.540;13.420;2022-10-23T04:18:02;9.40;;;6.07;;
2119;SDS011;1066;52.540;13.420;2022-10-23T04:20:28;5.73;;;5.10;;
2119;SDS011;1066;52.540;13.420;2022-10-23T04:22:53;7.10;;;6.17;;
2119;SDS011;1066;52.540;13.420;2022-10-23T04:25:19;6.17;;;5.57;;
2119;SDS011;1066;52.540;13.420;2022-10-23T04:27:44;8.80;;;6.70;;
2119;SDS011;1066;52.540;13.420;2022-10-23T04:30:10;7.17;;;5.13;;
2119;SDS011;1066;52.540;13.420;2022-10-23T04:32:36;7.43;;;5.80;;
2119;SDS011;1066;52.540;13.420;2022-10-23T04:35:01;7.30;;;5.20;;
2119;SDS011;1066;52.540;13.420;2022-10-23T04:37:26;6.70;;;5.97;;
2119;SDS011;1066;52.540;13.420;2022-10-23T04:39:52;7.47;;;6.30;;
2119;SDS011;1066;52.540;13.420;2022-10-23T04:42:18;6.07;;;5.57;;
2119;SDS011;1066;52.540;13.420;2022-10-23T04:44:43;5.47;;;4.97;;
2119;SDS011;1066;52.540;13.420;2022-10-23T04:47:08;5.97;;;5.40;;
2119;SDS011;1066;52.540;13.420;2022-10-23T04:49:34;7.67;;;5.80;;
2119;SDS011;1066;52.540;13.420;2022-10-23T04:51:59;5.93;;;5.27;;
2119;SDS011;1066;52.540;13.420;2022-10-23T04:54:25;6.40;;;5.80;;
2119;SDS011;1066;52.540;13.420;2022-10-23T04:56:50;7.00;;;5.73;;
2119;SDS011;1066;52.540;13.420;2022-10-23T04:59:15;5.90;;;5.00;;
2119;SDS011;1066;52.540;13.420;2022-10-23T05:01:41;6.50;;;5.60;;
2119;SDS011;1066;52.540;13.420;2022-10-23T05:04:07;7.80;;;6.30;;
2119;SDS011;1066;52.540;13.420;2022-10-23T05:06:32;7.53;;;6.30;;
2119;SDS011;1066;52.540;13.420;2022-10-23T05:08:58;8.73;;;5.60;;
2119;SDS011;1066;52.540;13.420;2022-10-23T05:11:23;7.83;;;6.00;;
2119;SDS011;1066;52.540;13.420;2022-10-23T05:13:49;8.43;;;5.87;;
2119;SDS011;1066;52.540;13.420;2022-10-23T05:19:03;7.57;;;6.73;;
2119;SDS011;1066;52.540;13.420;2022-10-23T05:21:30;6.93;;;5.93;;
2119;SDS011;1066;52.540;13.420;2022-10-23T05:23:58;7.13;;;6.40;;
2119;SDS011;1066;52.540;13.420;2022-10-23T05:26:25;9.40;;;7.37;;
2119;SDS011;1066;52.540;13.420;2022-10-23T05:28:51;6.93;;;6.33;;
2119;SDS011;1066;52.540;13.420;2022-10-23T05:31:16;8.07;;;6.90;;
2119;SDS011;1066;52.540;13.420;2022-10-23T05:33:43;8.93;;;7.37;;
2119;SDS011;1066;52.540;13.420;2022-10-23T05:36:08;14.87;;;7.87;;
2119;SDS011;1066;52.540;13.420;2022-10-23T05:38:35;9.40;;;6.87;;
2119;SDS011;1066;52.540;13.420;2022-10-23T05:41:01;7.73;;;7.03;;
2119;SDS011;1066;52.540;13.420;2022-10-23T05:43:27;8.17;;;7.37;;
2119;SDS011;1066;52.540;13.420;2022-10-23T05:45:55;8.80;;;6.70;;
2119;SDS011;1066;52.540;13.420;2022-10-23T05:48:20;7.10;;;6.50;;
2119;SDS011;1066;52.540;13.420;2022-10-23T05:50:46;9.43;;;7.50;;
2119;SDS011;1066;52.540;13.420;2022-10-23T05:53:11;7.67;;;6.37;;
2119;SDS011;1066;52.540;13.420;2022-10-23T05:55:36;9.10;;;6.90;;
2119;SDS011;1066;52.540;13.420;2022-10-23T05:58:02;7.30;;;6.50;;
2119;SDS011;1066;52.540;13.420;2022-10-23T06:00:28;8.17;;;7.07;;
2119;SDS011;1066;52.540;13.420;2022-10-23T06:02:53;8.23;;;6.97;;
2119;SDS011;1066;52.540;13.420;2022-10-23T06:05:18;8.43;;;7.70;;
2119;SDS011;1066;52.540;13.420;2022-10-23T06:07:44;8.03;;;7.23;;
2119;SDS011;1066;52.540;13.420;2022-10-23T06:10:09;9.37;;;7.57;;
2119;SDS011;1066;52.540;13.420;2022-10-23T06:12:35;7.40;;;6.53;;
2119;SDS011;1066;52.540;13.420;2022-10-23T06:15:00;7.00;;;6.30;;
2119;SDS011;1066;52.540;13.420;2022-10-23T06:17:26;6.97;;;6.37;;
2119;SDS011;1066;52.540;13.420;2022-10-23T06:19:52;7.23;;;6.53;;
2119;SDS011;1066;52.540;13.420;2022-10-23T06:22:17;8.90;;;6.60;;
2119;SDS011;1066;52.540;13.420;2022-10-23T06:24:43;6.83;;;6.23;;
2119;SDS011;1066;52.540;13.420;2022-10-23T06:27:08;7.87;;;7.07;;
2119;SDS011;1066;52.540;13.420;2022-10-23T06:29:33;7.00;;;6.40;;
2119;SDS011;1066;52.540;13.420;2022-10-23T06:31:59;7.40;;;6.60;;
2119;SDS011;1066;52.540;13.420;2022-10-23T06:34:25;7.40;;;6.70;;
2119;SDS011;1066;52.540;13.420;2022-10-23T06:36:50;7.90;;;7.10;;
2119;SDS011;1066;52.540;13.420;2022-10-23T06:39:15;8.27;;;6.90;;
2119;SDS011;1066;52.540;13.420;2022-10-23T06:41:41;9.87;;;6.90;;
2119;SDS011;1066;52.540;13.420;2022-10-23T06:44:08;8.97;;;6.67;;
2119;SDS011;1066;52.540;13.420;2022-10-23T06:46:34;10.00;;;8.30;;
2119;SDS011;1066;52.540;13.420;2022-10-23T06:48:59;8.77;;;7.73;;
2119;SDS011;1066;52.540;13.420;2022-10-23T06:51:25;9.00;;;8.13;;
2119;SDS011;1066;52.540;13.420;2022-10-23T06:53:53;8.77;;;7.90;;
2119;SDS011;1066;52.540;13.420;2022-10-23T06:56:20;10.40;;;6.70;;
2119;SDS011;1066;52.540;13.420;2022-10-23T06:58:46;10.37;;;8.00;;
2119;SDS011;1066;52.540;13.420;2022-10-23T07:01:11;11.03;;;6.93;;
2119;SDS011;1066;52.540;13.420;2022-10-23T07:03:37;10.40;;;7.10;;
2119;SDS011;1066;52.540;13.420;2022-10-23T07:06:04;7.50;;;6.80;;
2119;SDS011;1066;52.540;13.420;2022-10-23T07:08:30;8.23;;;7.50;;
2119;SDS011;1066;52.540;13.420;2022-10-23T07:10:56;7.50;;;6.80;;
2119;SDS011;1066;52.540;13.420;2022-10-23T07:13:21;9.83;;;7.20;;
2119;SDS011;1066;52.540;13.420;2022-10-23T07:15:48;8.90;;;7.00;;
2119;SDS011;1066;52.540;13.420;2022-10-23T07:18:14;8.70;;;7.77;;
2119;SDS011;1066;52.540;13.420;2022-10-23T07:20:40;10.07;;;7.80;;
2119;SDS011;1066;52.540;13.420;2022-10-23T07:23:06;8.17;;;7.50;;
2119;SDS011;1066;52.540;13.420;2022-10-23T07:25:32;8.70;;;7.80;;
2119;SDS011;1066;52.540;13.420;2022-10-23T07:27:58;12.20;;;9.17;;
2119;SDS011;1066;52.540;13.420;2022-10-23T07:30:23;10.40;;;7.93;;
2119;SDS011;1066;52.540;13.420;2022-10-23T07:32:49;9.83;;;8.93;;
2119;SDS011;1066;52.540;13.420;2022-10-23T07:35:14;11.70;;;9.97;;
2119;SDS011;1066;52.540;13.420;2022-10-23T07:37:40;12.23;;;8.30;;
2119;SDS011;1066;52.540;13.420;2022-10-23T07:40:05;10.83;;;9.00;;
2119;SDS011;1066;52.540;13.420;2022-10-23T07:42:32;9.27;;;8.37;;
2119;SDS011;1066;52.540;13.420;2022-10-23T07:44:57;12.53;;;8.77;;
2119;SDS011;1066;52.540;13.420;2022-10-23T07:47:23;8.40;;;7.70;;
2119;SDS011;1066;52.540;13.420;2022-10-23T07:49:48;8.90;;;8.10;;
2119;SDS011;1066;52.540;13.420;2022-10-23T07:52:14;10.43;;;9.43;;
2119;SDS011;1066;52.540;13.420;2022-10-23T07:54:39;10.60;;;8.50;;
2119;SDS011;1066;52.540;13.420;2022-10-23T07:57:05;10.17;;;8.00;;
2119;SDS011;1066;52.540;13.420;2022-10-23T07:59:31;10.27;;;9.13;;
2119;SDS011;1066;52.540;13.420;2022-10-23T08:01:57;11.17;;;9.40;;
2119;SDS011;1066;52.540;13.420;2022-10-23T08:04:22;9.50;;;8.47;;
2119;SDS011;1066;52.540;13.420;2022-10-23T08:06:48;8.63;;;7.87;;
2119;SDS011;1066;52.540;13.420;2022-10-23T08:09:14;9.17;;;7.83;;
2119;SDS011;1066;52.540;13.420;2022-10-23T08:11:39;9.43;;;8.30;;
2119;SDS011;1066;52.540;13.420;2022-10-23T08:14:05;10.57;;;8.50;;
2119;SDS011;1066;52.540;13.420;2022-10-23T08:16:31;9.13;;;7.40;;
2119;SDS011;1066;52.540;13.420;2022-10-23T08:18:58;9.67;;;8.17;;
2119;SDS011;1066;52.540;13.420;2022-10-23T08:21:24;9.03;;;8.03;;
2119;SDS011;1066;52.540;13.420;2022-10-23T08:23:53;7.90;;;6.90;;
2119;SDS011;1066;52.540;13.420;2022-10-23T08:26:19;8.37;;;7.47;;
2119;SDS011;1066;52.540;13.420;2022-10-23T08:28:45;7.77;;;7.00;;
2119;SDS011;1066;52.540;13.420;2022-10-23T08:31:12;7.83;;;7.03;;
2119;SDS011;1066;52.540;13.420;2022-10-23T08:33:39;14.17;;;7.63;;
2119;SDS011;1066;52.540;13.420;2022-10-23T08:36:04;8.13;;;7.20;;
2119;SDS011;1066;52.540;13.420;2022-10-23T08:38:30;11.93;;;9.47;;
2119;SDS011;1066;52.540;13.420;2022-10-23T08:40:57;16.50;;;10.03;;
2119;SDS011;1066;52.540;13.420;2022-10-23T08:43:33;13.63;;;12.23;;
2119;SDS011;1066;52.540;13.420;2022-10-23T08:46:03;20.87;;;18.67;;
2119;SDS011;1066;52.540;13.420;2022-10-23T08:48:33;13.43;;;10.63;;
2119;SDS011;1066;52.540;13.420;2022-10-23T08:51:16;27.40;;;24.53;;
2119;SDS011;1066;52.540;13.420;2022-10-23T08:53:53;9.63;;;8.43;;
2119;SDS011;1066;52.540;13.420;2022-10-23T08:56:25;9.13;;;8.07;;
2119;SDS011;1066;52.540;13.420;2022-10-23T08:58:57;8.53;;;6.83;;
2119;SDS011;1066;52.540;13.420;2022-10-23T09:01:42;8.60;;;6.97;;
2119;SDS011;1066;52.540;13.420;2022-10-23T09:04:10;9.77;;;7.20;;
2119;SDS011;1066;52.540;13.420;2022-10-23T09:06:43;6.73;;;6.10;;
2119;SDS011;1066;52.540;13.420;2022-10-23T09:12:09;6.53;;;5.93;;
2119;SDS011;1066;52.540;13.420;2022-10-23T09:17:29;9.07;;;5.77;;
2119;SDS011;1066;52.540;13.420;2022-10-23T09:22:44;6.70;;;5.10;;
2119;SDS011;1066;52.540;13.420;2022-10-23T09:25:15;8.37;;;6.80;;
2119;SDS011;1066;52.540;13.420;2022-10-23T09:27:46;10.40;;;9.07;;
2119;SDS011;1066;52.540;13.420;2022-10-23T09:32:59;7.77;;;6.67;;
2119;SDS011;1066;52.540;13.420;2022-10-23T09:35:36;9.87;;;8.10;;
2119;SDS011;1066;52.540;13.420;2022-10-23T09:38:01;42.20;;;37.97;;
2119;SDS011;1066;52.540;13.420;2022-10-23T09:40:41;19.10;;;17.03;;
2119;SDS011;1066;52.540;13.420;2022-10-23T09:43:14;57.47;;;51.37;;
2119;SDS011;1066;52.540;13.420;2022-10-23T09:45:41;41.90;;;37.30;;
2119;SDS011;1066;52.540;13.420;2022-10-23T09:50:51;50.07;;;44.73;;
2119;SDS011;1066;52.540;13.420;2022-10-23T09:53:39;23.30;;;20.87;;
2119;SDS011;1066;52.540;13.420;2022-10-23T09:56:34;26.40;;;23.53;;
2119;SDS011;1066;52.540;13.420;2022-10-23T09:59:04;18.80;;;16.80;;
2119;SDS011;1066;52.540;13.420;2022-10-23T10:02:32;9.03;;;7.70;;
2119;SDS011;1066;52.540;13.420;2022-10-23T10:04:45;15.80;;;13.60;;
2119;SDS011;1066;52.540;13.420;2022-10-23T10:07:18;12.67;;;11.40;;
2119;SDS011;1066;52.540;13.420;2022-10-23T10:09:51;13.23;;;11.87;;
2119;SDS011;1066;52.540;13.420;2022-10-23T10:12:19;12.37;;;8.07;;
2119;SDS011;1066;52.540;13.420;2022-10-23T10:14:49;8.73;;;7.10;;
2119;SDS011;1066;52.540;13.420;2022-10-23T10:17:26;12.67;;;10.87;;
2119;SDS011;1066;52.540;13.420;2022-10-23T10:20:06;10.97;;;9.73;;
2119;SDS011;1066;52.540;13.420;2022-10-23T10:22:41;6.47;;;5.87;;
2119;SDS011;1066;52.540;13.420;2022-10-23T10:28:01;14.37;;;11.70;;
2119;SDS011;1066;52.540;13.420;2022-10-23T10:33:29;7.70;;;6.93;;
2119;SDS011;1066;52.540;13.420;2022-10-23T10:36:03;11.37;;;6.57;;
2119;SDS011;1066;52.540;13.420;2022-10-23T10:46:58;10.47;;;7.97;;
2119;SDS011;1066;52.540;13.420;2022-10-23T10:52:21;22.87;;;15.63;;
2119;SDS011;1066;52.540;13.420;2022-10-23T11:00:43;6.80;;;5.13;;
2119;SDS011;1066;52.540;13.420;2022-10-23T11:05:55;6.53;;;4.77;;
2119;SDS011;1066;52.540;13.420;2022-10-23T11:10:56;5.60;;;4.20;;
2119;SDS011;1066;52.540;13.420;2022-10-23T11:13:29;7.33;;;4.80;;
2119;SDS011;1066;52.540;13.420;2022-10-23T11:16:01;5.80;;;4.83;;
2119;SDS011;1066;52.540;13.420;2022-10-23T11:18:29;9.43;;;7.40;;
2119;SDS011;1066;52.540;13.420;2022-10-23T11:20:58;12.23;;;6.40;;
2119;SDS011;1066;52.540;13.420;2022-10-23T11:31:38;6.10;;;4.90;;
2119;SDS011;1066;52.540;13.420;2022-10-23T11:41:57;9.23;;;6.47;;
2119;SDS011;1066;52.540;13.420;2022-10-23T11:47:05;7.33;;;6.50;;
2119;SDS011;1066;52.540;13.420;2022-10-23T11:49:49;8.30;;;6.83;;
2119;SDS011;1066;52.540;13.420;2022-10-23T11:52:23;7.17;;;6.20;;
2119;SDS011;1066;52.540;13.420;2022-10-23T11:54:59;5.97;;;5.43;;
2119;SDS011;1066;52.540;13.420;2022-10-23T11:57:27;6.87;;;4.83;;
2119;SDS011;1066;52.540;13.420;2022-10-23T11:59:53;7.50;;;6.27;;
2119;SDS011;1066;52.540;13.420;2022-10-23T12:04:55;6.70;;;5.60;;
2119;SDS011;1066;52.540;13.420;2022-10-23T12:07:23;5.77;;;4.00;;
2119;SDS011;1066;52.540;13.420;2022-10-23T12:09:52;5.60;;;4.30;;
2119;SDS011;1066;52.540;13.420;2022-10-23T12:12:27;7.70;;;4.50;;
2119;SDS011;1066;52.540;13.420;2022-10-23T12:14:53;6.70;;;5.03;;
2119;SDS011;1066;52.540;13.420;2022-10-23T12:19:54;9.43;;;8.47;;
2119;SDS011;1066;52.540;13.420;2022-10-23T12:22:26;10.70;;;6.80;;
2119;SDS011;1066;52.540;13.420;2022-10-23T12:30:21;7.73;;;4.50;;
2119;SDS011;1066;52.540;13.420;2022-10-23T12:38:41;6.50;;;4.20;;
2119;SDS011;1066;52.540;13.420;2022-10-23T12:41:27;6.70;;;4.70;;
2119;SDS011;1066;52.540;13.420;2022-10-23T12:44:03;6.23;;;3.97;;
2119;SDS011;1066;52.540;13.420;2022-10-23T12:46:30;8.43;;;3.80;;
2119;SDS011;1066;52.540;13.420;2022-10-23T12:48:59;4.17;;;3.77;;
2119;SDS011;1066;52.540;13.420;2022-10-23T12:51:27;9.30;;;4.17;;
2119;SDS011;1066;52.540;13.420;2022-10-23T12:53:54;5.20;;;4.10;;
2119;SDS011;1066;52.540;13.420;2022-10-23T12:56:19;8.77;;;6.57;;
2119;SDS011;1066;52.540;13.420;2022-10-23T12:58:50;17.47;;;15.57;;
2119;SDS011;1066;52.540;13.420;2022-10-23T13:01:22;22.87;;;18.43;;
2119;SDS011;1066;52.540;13.420;2022-10-23T13:03:49;29.30;;;21.40;;
2119;SDS011;1066;52.540;13.420;2022-10-23T13:06:15;3.63;;;3.30;;
2119;SDS011;1066;52.540;13.420;2022-10-23T13:08:42;19.90;;;17.10;;
2119;SDS011;1066;52.540;13.420;2022-10-23T13:11:08;8.73;;;7.57;;
2119;SDS011;1066;52.540;13.420;2022-10-23T13:13:38;6.30;;;5.80;;
2119;SDS011;1066;52.540;13.420;2022-10-23T13:16:21;7.67;;;3.43;;
2119;SDS011;1066;52.540;13.420;2022-10-23T13:18:48;2.80;;;2.57;;
2119;SDS011;1066;52.540;13.420;2022-10-23T13:21:19;5.03;;;3.63;;
2119;SDS011;1066;52.540;13.420;2022-10-23T13:23:45;4.77;;;3.63;;
2119;SDS011;1066;52.540;13.420;2022-10-23T13:26:29;5.83;;;3.60;;
2119;SDS011;1066;52.540;13.420;2022-10-23T13:29:01;6.20;;;3.17;;
2119;SDS011;1066;52.540;13.420;2022-10-23T13:31:30;5.30;;;3.20;;
2119;SDS011;1066;52.540;13.420;2022-10-23T13:36:26;16.40;;;13.63;;
2119;SDS011;1066;52.540;13.420;2022-10-23T13:41:35;15.80;;;13.60;;
2119;SDS011;1066;52.540;13.420;2022-10-23T13:44:02;24.97;;;18.47;;
2119;SDS011;1066;52.540;13.420;2022-10-23T13:46:27;10.10;;;7.40;;
2119;SDS011;1066;52.540;13.420;2022-10-23T13:48:53;4.33;;;2.70;;
2119;SDS011;1066;52.540;13.420;2022-10-23T13:51:20;3.50;;;2.83;;
2119;SDS011;1066;52.540;13.420;2022-10-23T13:53:47;7.33;;;2.63;;
2119;SDS011;1066;52.540;13.420;2022-10-23T13:56:13;3.97;;;2.10;;
2119;SDS011;1066;52.540;13.420;2022-10-23T13:58:39;5.17;;;2.57;;
2119;SDS011;1066;52.540;13.420;2022-10-23T14:01:05;4.40;;;3.23;;
2119;SDS011;1066;52.540;13.420;2022-10-23T14:03:31;7.43;;;3.30;;
2119;SDS011;1066;52.540;13.420;2022-10-23T14:05:56;5.00;;;2.90;;
2119;SDS011;1066;52.540;13.420;2022-10-23T14:08:21;5.63;;;2.93;;
2119;SDS011;1066;52.540;13.420;2022-10-23T14:10:47;7.77;;;3.03;;
2119;SDS011;1066;52.540;13.420;2022-10-23T14:13:12;5.90;;;2.97;;
2119;SDS011;1066;52.540;13.420;2022-10-23T14:15:38;4.67;;;2.90;;
2119;SDS011;1066;52.540;13.420;2022-10-23T14:18:03;8.20;;;4.10;;
2119;SDS011;1066;52.540;13.420;2022-10-23T14:20:36;4.67;;;2.70;;
2119;SDS011;1066;52.540;13.420;2022-10-23T14:23:02;4.87;;;3.50;;
2119;SDS011;1066;52.540;13.420;2022-10-23T14:25:27;3.90;;;2.80;;
2119;SDS011;1066;52.540;13.420;2022-10-23T14:27:53;5.30;;;3.03;;
2119;SDS011;1066;52.540;13.420;2022-10-23T14:30:19;8.50;;;3.30;;
2119;SDS011;1066;52.540;13.420;2022-10-23T14:32:44;4.50;;;2.37;;
2119;SDS011;1066;52.540;13.420;2022-10-23T14:35:09;5.73;;;2.30;;
2119;SDS011;1066;52.540;13.420;2022-10-23T14:37:35;5.50;;;3.00;;
2119;SDS011;1066;52.540;13.420;2022-10-23T14:40:00;4.53;;;3.17;;
2119;SDS011;1066;52.540;13.420;2022-10-23T14:42:26;3.63;;;2.63;;
2119;SDS011;1066;52.540;13.420;2022-10-23T14:44:57;3.90;;;2.80;;
2119;SDS011;1066;52.540;13.420;2022-10-23T14:47:24;4.47;;;3.03;;
2119;SDS011;1066;52.540;13.420;2022-10-23T14:49:50;6.30;;;3.33;;
2119;SDS011;1066;52.540;13.420;2022-10-23T14:52:16;6.40;;;3.63;;
2119;SDS011;1066;52.540;13.420;2022-10-23T14:54:42;3.43;;;3.00;;
2119;SDS011;1066;52.540;13.420;2022-10-23T14:57:07;4.50;;;2.77;;
2119;SDS011;1066;52.540;13.420;2022-10-23T14:59:33;7.03;;;3.10;;
2119;SDS011;1066;52.540;13.420;2022-10-23T15:01:58;5.73;;;3.30;;
2119;SDS011;1066;52.540;13.420;2022-10-23T15:04:26;9.30;;;5.90;;
2119;SDS011;1066;52.540;13.420;2022-10-23T15:06:52;5.60;;;3.20;;
2119;SDS011;1066;52.540;13.420;2022-10-23T15:09:17;4.00;;;3.27;;
2119;SDS011;1066;52.540;13.420;2022-10-23T15:11:44;7.13;;;3.83;;
2119;SDS011;1066;52.540;13.420;2022-10-23T15:14:09;7.80;;;3.30;;
2119;SDS011;1066;52.540;13.420;2022-10-23T15:16:35;4.43;;;3.63;;
2119;SDS011;1066;52.540;13.420;2022-10-23T15:19:05;5.80;;;3.83;;
2119;SDS011;1066;52.540;13.420;2022-10-23T15:21:32;5.30;;;3.70;;
2119;SDS011;1066;52.540;13.420;2022-10-23T15:23:57;8.07;;;7.27;;
2119;SDS011;1066;52.540;13.420;2022-10-23T15:26:24;20.40;;;15.50;;
2119;SDS011;1066;52.540;13.420;2022-10-23T15:28:53;15.53;;;13.97;;
2119;SDS011;1066;52.540;13.420;2022-10-23T15:31:40;10.33;;;4.87;;
2119;SDS011;1066;52.540;13.420;2022-10-23T15:34:11;12.17;;;4.37;;
2119;SDS011;1066;52.540;13.420;2022-10-23T15:36:40;4.50;;;3.87;;
2119;SDS011;1066;52.540;13.420;2022-10-23T15:39:07;6.13;;;4.47;;
2119;SDS011;1066;52.540;13.420;2022-10-23T15:41:36;6.63;;;3.70;;
2119;SDS011;1066;52.540;13.420;2022-10-23T15:44:03;4.47;;;3.80;;
2119;SDS011;1066;52.540;13.420;2022-10-23T15:46:30;5.10;;;4.27;;
2119;SDS011;1066;52.540;13.420;2022-10-23T15:48:55;5.00;;;3.33;;
2119;SDS011;1066;52.540;13.420;2022-10-23T15:51:21;4.50;;;4.10;;
2119;SDS011;1066;52.540;13.420;2022-10-23T15:53:46;7.83;;;4.83;;
2119;SDS011;1066;52.540;13.420;2022-10-23T15:56:12;9.33;;;4.40;;
2119;SDS011;1066;52.540;13.420;2022-10-23T15:58:37;6.20;;;4.73;;
2119;SDS011;1066;52.540;13.420;2022-10-23T16:01:03;5.20;;;4.50;;
2119;SDS011;1066;52.540;13.420;2022-10-23T16:03:30;6.80;;;4.03;;
2119;SDS011;1066;52.540;13.420;2022-10-23T16:05:56;7.03;;;5.17;;
2119;SDS011;1066;52.540;13.420;2022-10-23T16:08:22;8.63;;;6.03;;
2119;SDS011;1066;52.540;13.420;2022-10-23T16:10:48;6.57;;;3.80;;
2119;SDS011;1066;52.540;13.420;2022-10-23T16:13:13;5.33;;;4.37;;
2119;SDS011;1066;52.540;13.420;2022-10-23T16:15:39;5.30;;;3.70;;
2119;SDS011;1066;52.540;13.420;2022-10-23T16:18:04;7.33;;;4.03;;
2119;SDS011;1066;52.540;13.420;2022-10-23T16:20:30;5.30;;;3.97;;
2119;SDS011;1066;52.540;13.420;2022-10-23T16:22:55;5.33;;;4.00;;
2119;SDS011;1066;52.540;13.420;2022-10-23T16:25:21;8.67;;;5.60;;
2119;SDS011;1066;52.540;13.420;2022-10-23T16:27:46;5.97;;;5.20;;
2119;SDS011;1066;52.540;13.420;2022-10-23T16:30:12;6.47;;;3.73;;
2119;SDS011;1066;52.540;13.420;2022-10-23T16:32:40;8.60;;;4.13;;
2119;SDS011;1066;52.540;13.420;2022-10-23T16:35:06;6.10;;;4.40;;
2119;SDS011;1066;52.540;13.420;2022-10-23T16:37:32;5.13;;;4.50;;
2119;SDS011;1066;52.540;13.420;2022-10-23T16:39:57;5.70;;;4.60;;
2119;SDS011;1066;52.540;13.420;2022-10-23T16:42:23;7.30;;;5.23;;
2119;SDS011;1066;52.540;13.420;2022-10-23T16:44:49;6.20;;;5.00;;
2119;SDS011;1066;52.540;13.420;2022-10-23T16:47:14;6.80;;;4.97;;
2119;SDS011;1066;52.540;13.420;2022-10-23T16:49:40;7.50;;;4.50;;
2119;SDS011;1066;52.540;13.420;2022-10-23T16:52:05;5.87;;;4.13;;
2119;SDS011;1066;52.540;13.420;2022-10-23T16:54:31;7.37;;;4.60;;
2119;SDS011;1066;52.540;13.420;2022-10-23T16:56:56;5.07;;;4.53;;